Home > Products > Valid Products > TAF

000
FTUS45 KTWC 060536
TAFDUG
TAF
KDUG 060536Z 0606/0706 14009KT P6SM SCT250
     FM061500 19016G26KT P6SM FEW080
     FM061900 22030G40KT P6SM SCT080
     FM070200 24017G26KT P6SM SCT080=



000
FTUS45 KTWC 060536
TAFOLS
TAF
KOLS 060536Z 0606/0706 18012G18KT P6SM SCT250
     FM060800 16009KT P6SM SKC
     FM061500 18012G20KT P6SM FEW090
     FM061900 21022G32KT P6SM SCT090
     FM070200 22014G22KT P6SM SCT090=



000
FTUS45 KTWC 060536
TAFTUS
TAF
KTUS 060536Z 0606/0706 29007KT P6SM SKC
     FM060800 18007KT P6SM SKC
     FM061600 21014G22KT P6SM FEW100
     FM061900 22020G30KT P6SM SCT100
     FM070200 24013KT P6SM SCT100=



000
FTUS45 KTWC 052340
TAFOLS
TAF
KOLS 052340Z 0600/0624 19020G30KT P6SM SCT250
     FM060300 20014G22KT P6SM SCT250
     FM060800 16007KT P6SM SKC
     FM061500 18012G20KT P6SM FEW090
     FM061900 21020G29KT P6SM SCT090=



000
FTUS45 KTWC 052340
TAFTUS
TAF
KTUS 052340Z 0600/0624 19018G28KT P6SM SCT250
     FM060300 23014KT P6SM SCT250
     FM060600 18007KT P6SM SKC
     FM061600 21014G22KT P6SM FEW100
     FM061900 22020G30KT P6SM SCT100=



000
FTUS45 KTWC 052340
TAFDUG
TAF
KDUG 052340Z 0600/0624 21020G30KT P6SM FEW150 SCT250
     FM060300 20015G22KT P6SM SCT250
     FM060600 18011KT P6SM SKC
     FM061500 19016G26KT P6SM FEW080
     FM061900 22030G40KT P6SM SCT080=



000
FTUS45 KTWC 051723
TAFDUG
TAF
KDUG 051723Z 0518/0618 17015G25KT P6SM FEW100 SCT250
     FM051900 21020G30KT P6SM FEW150 SCT250
     FM060300 19010G17KT P6SM SCT250
     FM060600 19006KT P6SM SCT250
     FM061500 20018G24KT P6SM SCT250=



000
FTUS45 KTWC 051723
TAFTUS
TAF
KTUS 051723Z 0518/0618 20012G24KT P6SM SCT250
     FM051900 21022G33KT P6SM FEW120 BKN250
     FM060300 20012G20KT P6SM SCT250
     FM060600 16008KT P6SM FEW110
     FM061600 20012G22KT P6SM FEW120=



000
FTUS45 KTWC 051723
TAFOLS
TAF
KOLS 051723Z 0518/0618 21015G25KT P6SM SCT250
     FM052000 20023G35KT P6SM FEW100 BKN250
     FM060300 20014G22KT P6SM SCT250
     FM060800 18011KT P6SM FEW100
     FM061600 21015G25KT P6SM SCT250=



000
FTUS45 KTWC 051723
TAFOLS
TAF
KOLS 051723Z 0518/0618 21015G25KT P6SM SCT250
     FM052000 20023G35KT P6SM FEW100 BKN250
     FM060300 20014G22KT P6SM SCT250
     FM060800 18011KT P6SM FEW100
     FM061600 21015G25KT P6SM SCT250=



000
FTUS45 KTWC 051723
TAFDUG
TAF
KDUG 051723Z 0518/0618 17015G25KT P6SM FEW100 SCT250
     FM051900 21020G30KT P6SM FEW150 SCT250
     FM060300 19010G17KT P6SM SCT250
     FM060600 19006KT P6SM SCT250
     FM061500 20018G24KT P6SM SCT250=



000
FTUS45 KTWC 051723
TAFTUS
TAF
KTUS 051723Z 0518/0618 20012G24KT P6SM SCT250
     FM051900 21022G33KT P6SM FEW120 BKN250
     FM060300 20012G20KT P6SM SCT250
     FM060600 16008KT P6SM FEW110
     FM061600 20012G22KT P6SM FEW120=



000
FTUS45 KTWC 051120
TAFDUG
TAF
KDUG 051120Z 0512/0612 09008KT P6SM BKN250
     FM051700 17014G22KT P6SM FEW100 BKN250
     FM052000 21020G32KT P6SM BKN250
     FM060300 19010G17KT P6SM SCT250=



000
FTUS45 KTWC 051120
TAFTUS
TAF
KTUS 051120Z 0512/0612 15007KT P6SM SCT250
     FM051500 17014G22KT P6SM SCT250
     FM051900 21022G33KT P6SM FEW120 BKN250
     FM060300 20012G20KT P6SM SCT250
     FM060700 16008KT P6SM FEW110=



000
FTUS45 KTWC 051120
TAFOLS
TAF
KOLS 051120Z 0512/0612 VRB04KT P6SM SCT250
     FM051500 17016G26KT P6SM BKN250
     FM052000 20023G35KT P6SM FEW100 BKN250
     FM060300 20014G22KT P6SM SCT250
     FM060800 18011KT P6SM FEW100=



000
FTUS45 KTWC 051120
TAFTUS
TAF
KTUS 051120Z 0512/0612 15007KT P6SM SCT250
     FM051500 17014G22KT P6SM SCT250
     FM051900 21022G33KT P6SM FEW120 BKN250
     FM060300 20012G20KT P6SM SCT250
     FM060700 16008KT P6SM FEW110=



000
FTUS45 KTWC 050520
TAFOLS
TAF
KOLS 050520Z 0506/0606 VRB03KT P6SM SKC
     FM051700 17018G28KT P6SM SCT250
     FM052000 20022G32KT P6SM FEW100 SCT250
     FM060300 20014G20KT P6SM SCT250=



000
FTUS45 KTWC 050520
TAFDUG
TAF
KDUG 050520Z 0506/0606 09008KT P6SM SCT250
     FM051700 17014G22KT P6SM FEW100 SCT250
     FM052000 20020G30KT P6SM SCT250
     FM060300 21010G17KT P6SM SCT250=



000
FTUS45 KTWC 050520
TAFTUS
TAF
KTUS 050520Z 0506/0606 22008KT P6SM SCT250
     FM050800 14007KT P6SM SKC
     FM051500 17013G20KT P6SM FEW250
     FM051900 20020G29KT P6SM FEW120 SCT250
     FM060300 26010KT P6SM SCT250=



000
FTUS45 KTWC 042342
TAFDUG
TAF
KDUG 042342Z 0500/0524 09008KT P6SM SCT250
     FM051700 16014G22KT P6SM FEW100 SCT250=



000
FTUS45 KTWC 042342
TAFTUS
TAF
KTUS 042342Z 0500/0524 22008KT P6SM SCT250
     FM050800 14007KT P6SM SKC
     FM051500 17013G20KT P6SM FEW250
     FM051900 20022G30KT P6SM FEW120 SCT250=



000
FTUS45 KTWC 042342
TAFOLS
TAF
KOLS 042342Z 0500/0524 25008KT P6SM SCT250
     FM050400 VRB03KT P6SM SKC
     FM051700 17018G28KT P6SM SKC=



000
FTUS45 KTWC 041735
TAFDUG
TAF
KDUG 041735Z 0418/0518 12015G23KT P6SM SKC
     FM042100 15013G21KT P6SM SCT120
     FM050200 11011KT P6SM FEW120
     FM051000 09007KT P6SM SKC
     FM051500 16014G22KT P6SM SKC=



000
FTUS45 KTWC 041735
TAFOLS
TAF
KOLS 041735Z 0418/0518 16013G21KT P6SM SKC
     FM042100 19014G22KT P6SM FEW130
     FM050200 20008KT P6SM SKC
     FM050600 VRB03KT P6SM SKC
     FM051400 17010G18KT P6SM SKC=



000
FTUS45 KTWC 041735
TAFTUS
TAF
KTUS 041735Z 0418/0518 13017G25KT P6SM SKC
     FM042100 16012G20KT P6SM FEW140
     FM050200 25008KT P6SM SKC
     FM050800 14007KT P6SM SKC
     FM051400 17013G21KT P6SM SKC=



000
FTUS45 KTWC 041735
TAFOLS
TAF
KOLS 041735Z 0418/0518 16013G21KT P6SM SKC
     FM042100 19014G22KT P6SM FEW130
     FM050200 20008KT P6SM SKC
     FM050600 VRB03KT P6SM SKC
     FM051400 17010G18KT P6SM SKC=



000
FTUS45 KTWC 041735
TAFDUG
TAF
KDUG 041735Z 0418/0518 12015G23KT P6SM SKC
     FM042100 15013G21KT P6SM SCT120
     FM050200 11011KT P6SM FEW120
     FM051000 09007KT P6SM SKC
     FM051500 16014G22KT P6SM SKC=



000
FTUS45 KTWC 041735
TAFTUS
TAF
KTUS 041735Z 0418/0518 13017G25KT P6SM SKC
     FM042100 16012G20KT P6SM FEW140
     FM050200 25008KT P6SM SKC
     FM050800 14007KT P6SM SKC
     FM051400 17013G21KT P6SM SKC=



000
FTUS45 KTWC 041140
TAFOLS
TAF
KOLS 041140Z 0412/0512 VRB03KT P6SM SKC
     FM041800 17012G20KT P6SM FEW120
     FM050300 20007KT P6SM SKC
     FM050700 VRB03KT P6SM SKC=



000
FTUS45 KTWC 041140
TAFTUS
TAF
KTUS 041140Z 0412/0512 14010KT P6SM SKC
     FM041500 14016G26KT P6SM SKC
     FM042100 16012G20KT P6SM FEW140
     FM050200 24008KT P6SM SKC
     FM050700 14007KT P6SM SKC=



000
FTUS45 KTWC 041140
TAFDUG
TAF
KDUG 041140Z 0412/0512 09013G21KT P6SM SKC
     FM042100 15010G18KT P6SM SCT100
     FM050300 08009KT P6SM FEW120
     FM051000 VRB03KT P6SM SKC=



000
FTUS45 KTWC 041140
TAFTUS
TAF
KTUS 041140Z 0412/0512 14010KT P6SM SKC
     FM041500 14016G26KT P6SM SKC
     FM042100 16012G20KT P6SM FEW140
     FM050200 24008KT P6SM SKC
     FM050700 14007KT P6SM SKC=



000
FTUS45 KTWC 041140
TAFDUG
TAF
KDUG 041140Z 0412/0512 09013G21KT P6SM SKC
     FM042100 15010G18KT P6SM SCT100
     FM050300 08009KT P6SM FEW120
     FM051000 VRB03KT P6SM SKC=



000
FTUS45 KTWC 041140
TAFOLS
TAF
KOLS 041140Z 0412/0512 VRB03KT P6SM SKC
     FM041800 17012G20KT P6SM FEW120
     FM050300 20007KT P6SM SKC
     FM050700 VRB03KT P6SM SKC=



000
FTUS45 KTWC 040520
TAFDUG
TAF
KDUG 040520Z 0406/0506 06008KT P6SM SKC
     FM041000 09013G21KT P6SM SKC
     FM042100 15010G18KT P6SM SCT120
     FM050300 08009KT P6SM SKC=



000
FTUS45 KTWC 040520
TAFOLS
TAF
KOLS 040520Z 0406/0506 VRB03KT P6SM SKC
     FM041800 17012G20KT P6SM SCT130
     FM050300 20007KT P6SM SKC=



000
FTUS45 KTWC 040520
TAFTUS
TAF
KTUS 040520Z 0406/0506 16005KT P6SM SKC
     FM040900 14010KT P6SM SKC
     FM041200 14016G26KT P6SM SKC
     FM042100 18012G20KT P6SM SCT140
     FM050300 24008KT P6SM SKC=



000
FTUS45 KTWC 032320
TAFDUG
TAF
KDUG 032320Z 0400/0424 28009KT P6SM SKC
     FM040200 02008KT P6SM SKC
     FM041000 09014G22KT P6SM SKC
     FM042000 15011G19KT P6SM SCT120=



000
FTUS45 KTWC 032320
TAFDUG
TAF
KDUG 032320Z 0400/0424 28009KT P6SM SKC
     FM040200 02008KT P6SM SKC
     FM041000 09014G22KT P6SM SKC
     FM042000 15011G19KT P6SM SCT120=



000
FTUS45 KTWC 032320
TAFTUS
TAF
KTUS 032320Z 0400/0424 32007KT P6SM SKC
     FM040400 23005KT P6SM SKC
     FM040800 14010KT P6SM SKC
     FM041200 14016G26KT P6SM SKC
     FM042100 18012G20KT P6SM SCT140=



000
FTUS45 KTWC 032320
TAFOLS
TAF
KOLS 032320Z 0400/0424 25009KT P6SM SKC
     FM040200 VRB03KT P6SM SKC
     FM041800 17012G20KT P6SM SCT130=



000
FTUS45 KTWC 032320
TAFOLS
TAF
KOLS 032320Z 0400/0424 25009KT P6SM SKC
     FM040200 VRB03KT P6SM SKC
     FM041800 17012G20KT P6SM SCT130=



000
FTUS45 KTWC 032320
TAFTUS
TAF
KTUS 032320Z 0400/0424 32007KT P6SM SKC
     FM040400 23005KT P6SM SKC
     FM040800 14010KT P6SM SKC
     FM041200 14016G26KT P6SM SKC
     FM042100 18012G20KT P6SM SCT140=



000
FTUS45 KTWC 031738
TAFDUG
TAF
KDUG 031738Z 0318/0418 VRB03KT P6SM SKC
     FM032000 28009KT P6SM SKC
     FM040200 02008KT P6SM SKC
     FM041000 09014G22KT P6SM SKC=



000
FTUS45 KTWC 031738
TAFOLS
TAF
KOLS 031738Z 0318/0418 25009KT P6SM SKC
     FM040200 VRB03KT P6SM SKC=



000
FTUS45 KTWC 031738
TAFTUS
TAF
KTUS 031738Z 0318/0418 VRB03KT P6SM SKC
     FM032000 32007KT P6SM SKC
     FM040400 23005KT P6SM SKC
     FM040800 14010KT P6SM SKC
     FM041200 14016G26KT P6SM SKC=



000
FTUS45 KTWC 031738
TAFOLS
TAF
KOLS 031738Z 0318/0418 25009KT P6SM SKC
     FM040200 VRB03KT P6SM SKC=



000
FTUS45 KTWC 031738
TAFTUS
TAF
KTUS 031738Z 0318/0418 VRB03KT P6SM SKC
     FM032000 32007KT P6SM SKC
     FM040400 23005KT P6SM SKC
     FM040800 14010KT P6SM SKC
     FM041200 14016G26KT P6SM SKC=



000
FTUS45 KTWC 031738
TAFDUG
TAF
KDUG 031738Z 0318/0418 VRB03KT P6SM SKC
     FM032000 28009KT P6SM SKC
     FM040200 02008KT P6SM SKC
     FM041000 09014G22KT P6SM SKC=



000
FTUS45 KTWC 031140
TAFDUG
TAF
KDUG 031140Z 0312/0412 02008KT P6SM SKC
     FM031900 23008KT P6SM SKC
     FM040300 35009KT P6SM SKC
     FM041000 VRB03KT P6SM SKC=



000
FTUS45 KTWC 031140
TAFTUS
TAF
KTUS 031140Z 0312/0412 14007KT P6SM SKC
     FM031500 VRB03KT P6SM SKC
     FM032000 32006KT P6SM SKC
     FM040800 13010KT P6SM SKC=



000
FTUS45 KTWC 031140
TAFOLS
TAF
KOLS 031140Z 0312/0412 VRB03KT P6SM SKC
     FM031900 26010KT P6SM SKC
     FM040200 08005KT P6SM SKC
     FM040800 VRB03KT P6SM SKC=



    US Dept of Commerce
    National Oceanic and Atmospheric Administration
    National Weather Service
    1325 East West Highway
    Silver Spring, MD 20910
    Page Author: NWS Internet Services Team
Disclaimer
Information Quality
Credits
Glossary
Privacy Policy
Freedom of Information Act (FOIA)
About Us
Career Opportunities